sensor_id;sensor_type;location;lat;lon;timestamp;pressure;altitude;pressure_sealevel;temperature;humidity
6198;BME280;3132;42.622;23.328;2022-12-20T00:01:24;94490.41;;;-1.21;92.96
6198;BME280;3132;42.622;23.328;2022-12-20T00:03:52;94488.97;;;-1.15;92.66
6198;BME280;3132;42.622;23.328;2022-12-20T00:06:18;94479.50;;;-1.23;92.89
6198;BME280;3132;42.622;23.328;2022-12-20T00:08:45;94491.22;;;-1.12;92.96
6198;BME280;3132;42.622;23.328;2022-12-20T00:11:11;94494.56;;;-1.12;92.50
6198;BME280;3132;42.622;23.328;2022-12-20T00:13:37;94502.41;;;-1.13;92.27
6198;BME280;3132;42.622;23.328;2022-12-20T00:16:08;94500.81;;;-1.14;91.32
6198;BME280;3132;42.622;23.328;2022-12-20T00:18:34;94502.72;;;-1.08;90.04
6198;BME280;3132;42.622;23.328;2022-12-20T00:21:01;94505.28;;;-1.08;89.09
6198;BME280;3132;42.622;23.328;2022-12-20T00:23:27;94489.47;;;-1.20;88.87
6198;BME280;3132;42.622;23.328;2022-12-20T00:28:27;94497.63;;;-1.32;88.99
6198;BME280;3132;42.622;23.328;2022-12-20T00:30:53;94500.81;;;-1.30;89.13
6198;BME280;3132;42.622;23.328;2022-12-20T00:33:19;94508.66;;;-1.16;89.22
6198;BME280;3132;42.622;23.328;2022-12-20T00:35:44;94499.56;;;-1.18;89.77
6198;BME280;3132;42.622;23.328;2022-12-20T00:38:09;94506.91;;;-1.15;88.55
6198;BME280;3132;42.622;23.328;2022-12-20T00:40:35;94507.06;;;-1.17;88.16
6198;BME280;3132;42.622;23.328;2022-12-20T00:43:00;94496.19;;;-1.11;87.35
6198;BME280;3132;42.622;23.328;2022-12-20T00:45:25;94497.44;;;-1.23;88.35
6198;BME280;3132;42.622;23.328;2022-12-20T00:47:51;94487.22;;;-1.39;88.26
6198;BME280;3132;42.622;23.328;2022-12-20T00:50:16;94488.16;;;-1.32;88.36
6198;BME280;3132;42.622;23.328;2022-12-20T00:52:41;94464.81;;;-1.53;88.75
6198;BME280;3132;42.622;23.328;2022-12-20T00:55:07;94475.38;;;-1.48;88.27
6198;BME280;3132;42.622;23.328;2022-12-20T00:57:32;94494.91;;;-1.39;88.53
6198;BME280;3132;42.622;23.328;2022-12-20T00:59:58;94502.09;;;-1.58;89.59
6198;BME280;3132;42.622;23.328;2022-12-20T01:02:23;94504.03;;;-1.60;90.48
6198;BME280;3132;42.622;23.328;2022-12-20T01:04:48;94508.31;;;-1.69;90.22
6198;BME280;3132;42.622;23.328;2022-12-20T01:07:14;94498.56;;;-1.66;90.37
6198;BME280;3132;42.622;23.328;2022-12-20T01:09:39;94501.47;;;-1.60;90.63
6198;BME280;3132;42.622;23.328;2022-12-20T01:12:05;94500.66;;;-1.45;90.32
6198;BME280;3132;42.622;23.328;2022-12-20T01:14:30;94499.84;;;-1.53;90.11
6198;BME280;3132;42.622;23.328;2022-12-20T01:16:56;94486.41;;;-1.55;88.39
6198;BME280;3132;42.622;23.328;2022-12-20T01:19:21;94496.00;;;-1.66;88.58
6198;BME280;3132;42.622;23.328;2022-12-20T01:21:46;94486.09;;;-1.69;89.01
6198;BME280;3132;42.622;23.328;2022-12-20T01:24:17;94475.84;;;-1.60;89.10
6198;BME280;3132;42.622;23.328;2022-12-20T01:26:43;94472.00;;;-1.65;88.44
6198;BME280;3132;42.622;23.328;2022-12-20T01:29:09;94481.59;;;-1.67;87.50
6198;BME280;3132;42.622;23.328;2022-12-20T01:31:35;94467.34;;;-1.77;87.83
6198;BME280;3132;42.622;23.328;2022-12-20T01:34:00;94467.66;;;-1.88;88.15
6198;BME280;3132;42.622;23.328;2022-12-20T01:36:28;94460.81;;;-1.72;87.49
6198;BME280;3132;42.622;23.328;2022-12-20T01:38:59;94440.00;;;-1.77;86.44
6198;BME280;3132;42.622;23.328;2022-12-20T01:41:25;94464.78;;;-1.77;86.05
6198;BME280;3132;42.622;23.328;2022-12-20T01:43:54;94444.78;;;-1.82;85.90
6198;BME280;3132;42.622;23.328;2022-12-20T01:46:23;94453.13;;;-1.72;85.97
6198;BME280;3132;42.622;23.328;2022-12-20T01:51:35;94448.63;;;-1.86;85.56
6198;BME280;3132;42.622;23.328;2022-12-20T01:54:10;94449.91;;;-1.82;85.21
6198;BME280;3132;42.622;23.328;2022-12-20T01:56:37;94447.34;;;-1.82;84.63
6198;BME280;3132;42.622;23.328;2022-12-20T01:59:05;94442.25;;;-1.74;84.92
6198;BME280;3132;42.622;23.328;2022-12-20T02:01:32;94437.28;;;-1.75;84.10
6198;BME280;3132;42.622;23.328;2022-12-20T02:03:57;94420.16;;;-1.83;84.33
6198;BME280;3132;42.622;23.328;2022-12-20T02:06:24;94408.50;;;-1.93;82.93
6198;BME280;3132;42.622;23.328;2022-12-20T02:08:51;94430.91;;;-1.79;83.08
6198;BME280;3132;42.622;23.328;2022-12-20T02:17:42;94417.91;;;-2.02;81.79
6198;BME280;3132;42.622;23.328;2022-12-20T02:31:36;94435.78;;;-2.18;82.90
6198;BME280;3132;42.622;23.328;2022-12-20T02:34:04;94425.41;;;-2.24;83.37
6198;BME280;3132;42.622;23.328;2022-12-20T02:36:32;94432.59;;;-2.20;83.58
6198;BME280;3132;42.622;23.328;2022-12-20T02:38:57;94442.19;;;-2.22;84.35
6198;BME280;3132;42.622;23.328;2022-12-20T02:41:32;94441.56;;;-2.16;84.26
6198;BME280;3132;42.622;23.328;2022-12-20T02:44:02;94431.00;;;-2.13;84.34
6198;BME280;3132;42.622;23.328;2022-12-20T02:46:48;94420.75;;;-2.37;84.57
6198;BME280;3132;42.622;23.328;2022-12-20T02:49:21;94423.13;;;-2.35;84.59
6198;BME280;3132;42.622;23.328;2022-12-20T02:51:51;94428.59;;;-2.22;84.77
6198;BME280;3132;42.622;23.328;2022-12-20T02:54:18;94417.06;;;-2.34;84.77
6198;BME280;3132;42.622;23.328;2022-12-20T02:56:49;94411.44;;;-2.38;85.10
6198;BME280;3132;42.622;23.328;2022-12-20T02:59:20;94422.97;;;-2.34;84.68
6198;BME280;3132;42.622;23.328;2022-12-20T03:01:50;94418.13;;;-2.53;85.36
6198;BME280;3132;42.622;23.328;2022-12-20T03:04:17;94416.72;;;-2.39;85.27
6198;BME280;3132;42.622;23.328;2022-12-20T03:07:03;94421.22;;;-2.41;85.74
6198;BME280;3132;42.622;23.328;2022-12-20T03:09:30;94400.53;;;-2.56;84.70
6198;BME280;3132;42.622;23.328;2022-12-20T03:11:56;94403.59;;;-2.44;84.51
6198;BME280;3132;42.622;23.328;2022-12-20T03:14:21;94417.25;;;-2.20;83.66
6198;BME280;3132;42.622;23.328;2022-12-20T03:16:47;94406.03;;;-2.27;84.12
6198;BME280;3132;42.622;23.328;2022-12-20T03:19:12;94400.44;;;-2.22;82.61
6198;BME280;3132;42.622;23.328;2022-12-20T03:21:38;94397.25;;;-2.32;83.55
6198;BME280;3132;42.622;23.328;2022-12-20T03:24:03;94402.03;;;-2.37;85.08
6198;BME280;3132;42.622;23.328;2022-12-20T03:26:28;94413.22;;;-2.30;84.73
6198;BME280;3132;42.622;23.328;2022-12-20T03:28:54;94410.81;;;-2.40;84.68
6198;BME280;3132;42.622;23.328;2022-12-20T03:31:19;94404.53;;;-2.53;85.37
6198;BME280;3132;42.622;23.328;2022-12-20T03:33:45;94401.53;;;-2.41;85.22
6198;BME280;3132;42.622;23.328;2022-12-20T03:36:10;94413.38;;;-2.40;84.95
6198;BME280;3132;42.622;23.328;2022-12-20T03:38:35;94405.72;;;-2.40;85.07
6198;BME280;3132;42.622;23.328;2022-12-20T03:41:01;94400.09;;;-2.43;85.08
6198;BME280;3132;42.622;23.328;2022-12-20T03:43:26;94412.09;;;-2.36;83.49
6198;BME280;3132;42.622;23.328;2022-12-20T03:45:51;94409.50;;;-2.52;84.83
6198;BME280;3132;42.622;23.328;2022-12-20T03:48:17;94392.47;;;-2.77;85.78
6198;BME280;3132;42.622;23.328;2022-12-20T03:50:42;94400.22;;;-2.61;86.01
6198;BME280;3132;42.622;23.328;2022-12-20T03:53:07;94404.38;;;-2.52;84.87
6198;BME280;3132;42.622;23.328;2022-12-20T03:55:33;94391.28;;;-2.57;85.43
6198;BME280;3132;42.622;23.328;2022-12-20T03:57:58;94393.47;;;-2.70;85.73
6198;BME280;3132;42.622;23.328;2022-12-20T04:00:24;94371.75;;;-2.66;86.29
6198;BME280;3132;42.622;23.328;2022-12-20T04:02:49;94391.56;;;-2.60;86.04
6198;BME280;3132;42.622;23.328;2022-12-20T04:05:14;94400.03;;;-2.67;86.40
6198;BME280;3132;42.622;23.328;2022-12-20T04:07:40;94385.81;;;-2.70;86.36
6198;BME280;3132;42.622;23.328;2022-12-20T04:10:06;94388.34;;;-2.78;85.10
6198;BME280;3132;42.622;23.328;2022-12-20T04:12:32;94393.28;;;-2.76;85.65
6198;BME280;3132;42.622;23.328;2022-12-20T04:14:57;94390.81;;;-2.94;86.27
6198;BME280;3132;42.622;23.328;2022-12-20T04:17:22;94403.16;;;-2.81;86.56
6198;BME280;3132;42.622;23.328;2022-12-20T04:19:48;94377.72;;;-2.99;86.04
6198;BME280;3132;42.622;23.328;2022-12-20T04:22:13;94372.94;;;-2.94;86.33
6198;BME280;3132;42.622;23.328;2022-12-20T04:24:38;94389.09;;;-3.27;87.76
6198;BME280;3132;42.622;23.328;2022-12-20T04:27:04;94383.22;;;-3.19;87.40
6198;BME280;3132;42.622;23.328;2022-12-20T04:29:30;94383.72;;;-3.16;86.71
6198;BME280;3132;42.622;23.328;2022-12-20T04:31:55;94375.50;;;-3.28;86.85
6198;BME280;3132;42.622;23.328;2022-12-20T04:34:20;94377.59;;;-3.23;86.85
6198;BME280;3132;42.622;23.328;2022-12-20T04:36:46;94380.81;;;-3.21;86.92
6198;BME280;3132;42.622;23.328;2022-12-20T04:39:11;94382.00;;;-3.33;87.89
6198;BME280;3132;42.622;23.328;2022-12-20T04:41:37;94363.78;;;-3.46;87.73
6198;BME280;3132;42.622;23.328;2022-12-20T04:44:02;94380.47;;;-3.26;87.90
6198;BME280;3132;42.622;23.328;2022-12-20T04:46:27;94385.31;;;-3.41;88.34
6198;BME280;3132;42.622;23.328;2022-12-20T04:48:53;94385.31;;;-3.41;88.87
6198;BME280;3132;42.622;23.328;2022-12-20T04:51:18;94381.03;;;-3.40;88.78
6198;BME280;3132;42.622;23.328;2022-12-20T04:53:44;94388.94;;;-3.51;88.97
6198;BME280;3132;42.622;23.328;2022-12-20T04:56:19;94382.84;;;-3.58;89.97
6198;BME280;3132;42.622;23.328;2022-12-20T04:58:45;94386.94;;;-3.65;89.18
6198;BME280;3132;42.622;23.328;2022-12-20T05:01:11;94383.09;;;-3.69;88.80
6198;BME280;3132;42.622;23.328;2022-12-20T05:03:37;94372.19;;;-3.54;88.64
6198;BME280;3132;42.622;23.328;2022-12-20T05:06:02;94382.06;;;-3.76;89.27
6198;BME280;3132;42.622;23.328;2022-12-20T05:08:28;94378.28;;;-3.72;89.45
6198;BME280;3132;42.622;23.328;2022-12-20T05:10:54;94367.72;;;-3.77;90.09
6198;BME280;3132;42.622;23.328;2022-12-20T05:13:25;94359.19;;;-3.86;88.87
6198;BME280;3132;42.622;23.328;2022-12-20T05:15:51;94372.22;;;-3.71;90.08
6198;BME280;3132;42.622;23.328;2022-12-20T05:18:17;94376.91;;;-3.84;89.39
6198;BME280;3132;42.622;23.328;2022-12-20T05:20:43;94359.28;;;-3.95;90.10
6198;BME280;3132;42.622;23.328;2022-12-20T05:23:09;94378.16;;;-3.71;89.19
6198;BME280;3132;42.622;23.328;2022-12-20T05:25:54;94381.97;;;-3.92;89.21
6198;BME280;3132;42.622;23.328;2022-12-20T05:28:38;94388.59;;;-3.99;89.88
6198;BME280;3132;42.622;23.328;2022-12-20T05:31:03;94368.19;;;-3.99;90.32
6198;BME280;3132;42.622;23.328;2022-12-20T05:33:29;94369.41;;;-3.86;88.98
6198;BME280;3132;42.622;23.328;2022-12-20T05:35:54;94382.38;;;-3.79;90.76
6198;BME280;3132;42.622;23.328;2022-12-20T05:38:20;94378.91;;;-3.70;90.13
6198;BME280;3132;42.622;23.328;2022-12-20T05:40:47;94376.38;;;-3.70;89.56
6198;BME280;3132;42.622;23.328;2022-12-20T05:43:13;94385.44;;;-3.76;89.20
6198;BME280;3132;42.622;23.328;2022-12-20T05:45:39;94364.34;;;-4.03;88.89
6198;BME280;3132;42.622;23.328;2022-12-20T05:48:05;94385.09;;;-3.98;90.60
6198;BME280;3132;42.622;23.328;2022-12-20T05:50:31;94368.19;;;-3.99;89.99
6198;BME280;3132;42.622;23.328;2022-12-20T05:52:56;94370.47;;;-3.96;90.02
6198;BME280;3132;42.622;23.328;2022-12-20T05:55:21;94379.47;;;-3.84;89.50
6198;BME280;3132;42.622;23.328;2022-12-20T05:57:47;94390.69;;;-3.77;89.04
6198;BME280;3132;42.622;23.328;2022-12-20T06:00:14;94390.03;;;-3.79;87.97
6198;BME280;3132;42.622;23.328;2022-12-20T06:02:39;94389.72;;;-3.76;88.38
6198;BME280;3132;42.622;23.328;2022-12-20T06:05:05;94384.31;;;-3.73;88.88
6198;BME280;3132;42.622;23.328;2022-12-20T06:07:31;94399.94;;;-3.76;88.70
6198;BME280;3132;42.622;23.328;2022-12-20T06:09:57;94394.53;;;-3.73;88.36
6198;BME280;3132;42.622;23.328;2022-12-20T06:12:23;94395.63;;;-3.50;87.84
6198;BME280;3132;42.622;23.328;2022-12-20T06:14:48;94384.75;;;-3.60;87.21
6198;BME280;3132;42.622;23.328;2022-12-20T06:17:14;94399.75;;;-3.57;88.37
6198;BME280;3132;42.622;23.328;2022-12-20T06:19:39;94391.06;;;-3.64;88.02
6198;BME280;3132;42.622;23.328;2022-12-20T06:22:06;94397.66;;;-3.62;88.46
6198;BME280;3132;42.622;23.328;2022-12-20T06:24:35;94400.34;;;-3.63;88.34
6198;BME280;3132;42.622;23.328;2022-12-20T06:27:01;94391.19;;;-3.74;89.00
6198;BME280;3132;42.622;23.328;2022-12-20T06:29:27;94389.53;;;-3.57;88.53
6198;BME280;3132;42.622;23.328;2022-12-20T06:31:52;94379.63;;;-3.60;89.18
6198;BME280;3132;42.622;23.328;2022-12-20T06:34:18;94401.66;;;-3.59;89.62
6198;BME280;3132;42.622;23.328;2022-12-20T06:36:43;94397.94;;;-3.39;88.66
6198;BME280;3132;42.622;23.328;2022-12-20T06:39:09;94386.84;;;-3.30;89.10
6198;BME280;3132;42.622;23.328;2022-12-20T06:41:35;94399.03;;;-3.16;88.48
6198;BME280;3132;42.622;23.328;2022-12-20T06:44:00;94394.41;;;-3.12;87.28
6198;BME280;3132;42.622;23.328;2022-12-20T06:46:26;94380.97;;;-3.22;87.49
6198;BME280;3132;42.622;23.328;2022-12-20T06:48:52;94383.22;;;-3.19;86.36
6198;BME280;3132;42.622;23.328;2022-12-20T06:51:19;94382.03;;;-2.99;86.73
6198;BME280;3132;42.622;23.328;2022-12-20T06:53:45;94379.78;;;-3.02;86.33
6198;BME280;3132;42.622;23.328;2022-12-20T06:56:10;94382.50;;;-3.04;88.44
6198;BME280;3132;42.622;23.328;2022-12-20T06:58:35;94375.44;;;-3.10;88.86
6198;BME280;3132;42.622;23.328;2022-12-20T07:01:01;94384.50;;;-3.15;90.59
6198;BME280;3132;42.622;23.328;2022-12-20T07:03:26;94365.16;;;-3.26;91.12
6198;BME280;3132;42.622;23.328;2022-12-20T07:05:52;94363.91;;;-2.80;88.56
6198;BME280;3132;42.622;23.328;2022-12-20T07:08:19;94345.50;;;-2.92;87.47
6198;BME280;3132;42.622;23.328;2022-12-20T07:10:44;94360.31;;;-2.95;88.18
6198;BME280;3132;42.622;23.328;2022-12-20T07:13:10;94365.00;;;-2.83;87.18
6198;BME280;3132;42.622;23.328;2022-12-20T07:15:36;94355.13;;;-2.70;85.46
6198;BME280;3132;42.622;23.328;2022-12-20T07:18:01;94348.78;;;-2.58;83.35
6198;BME280;3132;42.622;23.328;2022-12-20T07:20:27;94349.69;;;-2.75;83.79
6198;BME280;3132;42.622;23.328;2022-12-20T07:22:52;94369.16;;;-2.74;83.55
6198;BME280;3132;42.622;23.328;2022-12-20T07:25:18;94364.38;;;-2.77;83.24
6198;BME280;3132;42.622;23.328;2022-12-20T07:27:46;94342.34;;;-2.70;83.64
6198;BME280;3132;42.622;23.328;2022-12-20T07:30:12;94366.63;;;-2.66;82.78
6198;BME280;3132;42.622;23.328;2022-12-20T07:32:38;94363.41;;;-2.84;81.54
6198;BME280;3132;42.622;23.328;2022-12-20T07:35:04;94351.44;;;-2.75;83.53
6198;BME280;3132;42.622;23.328;2022-12-20T07:37:30;94359.75;;;-2.73;82.30
6198;BME280;3132;42.622;23.328;2022-12-20T07:39:55;94364.28;;;-2.51;81.45
6198;BME280;3132;42.622;23.328;2022-12-20T07:42:21;94343.47;;;-2.64;79.94
6198;BME280;3132;42.622;23.328;2022-12-20T07:44:46;94372.75;;;-2.59;79.67
6198;BME280;3132;42.622;23.328;2022-12-20T07:47:11;94308.66;;;-2.73;79.66
6198;BME280;3132;42.622;23.328;2022-12-20T07:49:37;94360.28;;;-2.46;79.35
6198;BME280;3132;42.622;23.328;2022-12-20T07:52:03;94366.88;;;-2.43;79.53
6198;BME280;3132;42.622;23.328;2022-12-20T07:54:32;94363.84;;;-2.23;80.47
6198;BME280;3132;42.622;23.328;2022-12-20T07:57:03;94367.34;;;-1.76;78.22
6198;BME280;3132;42.622;23.328;2022-12-20T07:59:39;94352.34;;;-1.95;78.95
6198;BME280;3132;42.622;23.328;2022-12-20T08:02:06;94352.00;;;-1.84;80.15
6198;BME280;3132;42.622;23.328;2022-12-20T08:04:35;94365.00;;;-1.93;79.01
6198;BME280;3132;42.622;23.328;2022-12-20T08:07:00;94363.47;;;-1.47;77.80
6198;BME280;3132;42.622;23.328;2022-12-20T08:09:31;94346.53;;;-1.48;76.49
6198;BME280;3132;42.622;23.328;2022-12-20T08:11:58;94353.72;;;-1.36;77.85
6198;BME280;3132;42.622;23.328;2022-12-20T08:14:24;94355.13;;;-1.25;75.23
6198;BME280;3132;42.622;23.328;2022-12-20T08:16:50;94346.38;;;-1.47;76.64
6198;BME280;3132;42.622;23.328;2022-12-20T08:19:15;94349.53;;;-1.37;78.12
6198;BME280;3132;42.622;23.328;2022-12-20T08:21:40;94353.88;;;-0.91;73.83
6198;BME280;3132;42.622;23.328;2022-12-20T08:24:06;94356.66;;;-1.08;74.32
6198;BME280;3132;42.622;23.328;2022-12-20T08:26:37;94350.88;;;-1.02;73.83
6198;BME280;3132;42.622;23.328;2022-12-20T08:29:02;94348.81;;;-1.07;74.34
6198;BME280;3132;42.622;23.328;2022-12-20T08:31:27;94353.75;;;-0.97;75.24
6198;BME280;3132;42.622;23.328;2022-12-20T08:33:53;94348.63;;;-0.97;74.56
6198;BME280;3132;42.622;23.328;2022-12-20T08:36:19;94355.41;;;-0.74;71.89
6198;BME280;3132;42.622;23.328;2022-12-20T08:38:44;94348.00;;;-0.69;72.37
6198;BME280;3132;42.622;23.328;2022-12-20T08:41:12;94339.84;;;-0.72;72.37
6198;BME280;3132;42.622;23.328;2022-12-20T08:43:39;94342.69;;;-0.59;72.25
6198;BME280;3132;42.622;23.328;2022-12-20T08:46:06;94318.13;;;-0.84;72.89
6198;BME280;3132;42.622;23.328;2022-12-20T08:48:32;94333.75;;;-0.71;74.30
6198;BME280;3132;42.622;23.328;2022-12-20T08:51:01;94338.53;;;-0.38;72.04
6198;BME280;3132;42.622;23.328;2022-12-20T08:53:28;94335.75;;;-0.28;69.85
6198;BME280;3132;42.622;23.328;2022-12-20T08:55:54;94337.47;;;-0.51;71.38
6198;BME280;3132;42.622;23.328;2022-12-20T08:58:26;94349.03;;;-0.25;71.71
6198;BME280;3132;42.622;23.328;2022-12-20T09:00:52;94340.53;;;-0.25;70.89
6198;BME280;3132;42.622;23.328;2022-12-20T09:03:17;94327.81;;;-0.41;72.28
6198;BME280;3132;42.622;23.328;2022-12-20T09:05:44;94328.44;;;-0.39;71.87
6198;BME280;3132;42.622;23.328;2022-12-20T09:08:10;94314.06;;;-0.48;72.36
6198;BME280;3132;42.622;23.328;2022-12-20T09:10:35;94323.91;;;-0.37;71.54
6198;BME280;3132;42.622;23.328;2022-12-20T09:13:01;94317.25;;;-0.46;72.08
6198;BME280;3132;42.622;23.328;2022-12-20T09:15:26;94312.19;;;-0.09;69.40
6198;BME280;3132;42.622;23.328;2022-12-20T09:17:52;94319.53;;;-0.06;69.64
6198;BME280;3132;42.622;23.328;2022-12-20T09:20:17;94310.25;;;-0.07;69.89
6198;BME280;3132;42.622;23.328;2022-12-20T09:22:43;94303.78;;;-0.03;69.59
6198;BME280;3132;42.622;23.328;2022-12-20T09:25:08;94295.53;;;-0.13;68.83
6198;BME280;3132;42.622;23.328;2022-12-20T09:27:34;94302.31;;;-0.20;70.08
6198;BME280;3132;42.622;23.328;2022-12-20T09:29:59;94304.50;;;-0.32;70.35
6198;BME280;3132;42.622;23.328;2022-12-20T09:32:24;94302.31;;;-0.43;71.79
6198;BME280;3132;42.622;23.328;2022-12-20T09:34:50;94290.28;;;-0.20;71.14
6198;BME280;3132;42.622;23.328;2022-12-20T09:37:15;94274.72;;;-0.18;70.23
6198;BME280;3132;42.622;23.328;2022-12-20T09:39:40;94289.88;;;-0.09;70.80
6198;BME280;3132;42.622;23.328;2022-12-20T09:42:07;94298.03;;;-0.05;69.96
6198;BME280;3132;42.622;23.328;2022-12-20T09:44:35;94292.00;;;-0.12;70.75
6198;BME280;3132;42.622;23.328;2022-12-20T09:47:12;94279.34;;;-0.36;72.17
6198;BME280;3132;42.622;23.328;2022-12-20T09:49:42;94277.97;;;-0.24;71.14
6198;BME280;3132;42.622;23.328;2022-12-20T09:52:27;94278.09;;;-0.03;71.58
6198;BME280;3132;42.622;23.328;2022-12-20T09:54:58;94285.88;;;0.41;69.26
6198;BME280;3132;42.622;23.328;2022-12-20T09:57:50;94279.41;;;0.30;69.64
6198;BME280;3132;42.622;23.328;2022-12-20T10:00:20;94266.50;;;0.53;67.60
6198;BME280;3132;42.622;23.328;2022-12-20T10:02:46;94264.22;;;0.43;67.88
6198;BME280;3132;42.622;23.328;2022-12-20T10:05:41;94265.34;;;0.55;67.05
6198;BME280;3132;42.622;23.328;2022-12-20T10:08:26;94267.66;;;0.50;67.84
6198;BME280;3132;42.622;23.328;2022-12-20T10:10:58;94255.53;;;0.59;66.70
6198;BME280;3132;42.622;23.328;2022-12-20T10:16:39;94230.63;;;0.30;68.34
6198;BME280;3132;42.622;23.328;2022-12-20T10:24:33;94217.84;;;0.66;67.36
6198;BME280;3132;42.622;23.328;2022-12-20T10:27:18;94208.03;;;0.90;66.68
6198;BME280;3132;42.622;23.328;2022-12-20T10:29:45;94197.63;;;0.77;67.46
6198;BME280;3132;42.622;23.328;2022-12-20T10:32:17;94197.81;;;1.11;65.30
6198;BME280;3132;42.622;23.328;2022-12-20T10:34:53;94197.06;;;1.17;64.01
6198;BME280;3132;42.622;23.328;2022-12-20T10:37:19;94178.44;;;1.15;64.48
6198;BME280;3132;42.622;23.328;2022-12-20T10:39:47;94187.03;;;1.22;64.40
6198;BME280;3132;42.622;23.328;2022-12-20T10:42:27;94177.59;;;1.08;64.46
6198;BME280;3132;42.622;23.328;2022-12-20T10:44:56;94169.78;;;1.16;65.76
6198;BME280;3132;42.622;23.328;2022-12-20T10:47:31;94169.81;;;1.02;67.42
6198;BME280;3132;42.622;23.328;2022-12-20T10:50:15;94164.38;;;1.11;66.48
6198;BME280;3132;42.622;23.328;2022-12-20T10:52:43;94158.56;;;1.24;64.24
6198;BME280;3132;42.622;23.328;2022-12-20T10:55:44;94163.31;;;1.48;63.18
6198;BME280;3132;42.622;23.328;2022-12-20T10:58:32;94166.44;;;1.64;60.30
6198;BME280;3132;42.622;23.328;2022-12-20T11:01:19;94158.72;;;1.64;60.11
6198;BME280;3132;42.622;23.328;2022-12-20T11:04:00;94149.72;;;1.54;61.69
6198;BME280;3132;42.622;23.328;2022-12-20T11:06:40;94154.97;;;1.67;60.45
6198;BME280;3132;42.622;23.328;2022-12-20T11:12:06;94144.59;;;1.60;60.63
6198;BME280;3132;42.622;23.328;2022-12-20T11:14:36;94132.59;;;1.40;61.54
6198;BME280;3132;42.622;23.328;2022-12-20T11:17:18;94132.72;;;1.32;63.21
6198;BME280;3132;42.622;23.328;2022-12-20T11:22:33;94134.19;;;1.68;60.97
6198;BME280;3132;42.622;23.328;2022-12-20T11:28:16;94134.91;;;1.84;59.11
6198;BME280;3132;42.622;23.328;2022-12-20T11:36:05;94130.38;;;1.92;58.71
6198;BME280;3132;42.622;23.328;2022-12-20T11:49:21;94098.16;;;1.68;60.89
6198;BME280;3132;42.622;23.328;2022-12-20T11:55:18;94102.72;;;2.07;57.02
6198;BME280;3132;42.622;23.328;2022-12-20T11:57:56;94098.69;;;2.32;56.19
6198;BME280;3132;42.622;23.328;2022-12-20T12:00:24;94097.00;;;2.59;55.90
6198;BME280;3132;42.622;23.328;2022-12-20T12:03:16;94095.84;;;2.68;54.78
6198;BME280;3132;42.622;23.328;2022-12-20T12:05:46;94093.00;;;2.50;55.62
6198;BME280;3132;42.622;23.328;2022-12-20T12:08:20;94089.50;;;2.64;54.87
6198;BME280;3132;42.622;23.328;2022-12-20T12:11:13;94080.19;;;2.63;65.28
6198;BME280;3132;42.622;23.328;2022-12-20T12:13:40;94068.19;;;1.95;57.79
6198;BME280;3132;42.622;23.328;2022-12-20T12:16:31;94081.72;;;2.04;57.89
6198;BME280;3132;42.622;23.328;2022-12-20T12:18:59;94076.19;;;2.07;58.78
6198;BME280;3132;42.622;23.328;2022-12-20T12:21:26;94082.69;;;2.03;58.07
6198;BME280;3132;42.622;23.328;2022-12-20T12:26:30;94079.19;;;2.70;55.57
6198;BME280;3132;42.622;23.328;2022-12-20T12:29:02;94082.06;;;2.41;56.82
6198;BME280;3132;42.622;23.328;2022-12-20T12:34:56;94081.00;;;2.23;55.88
6198;BME280;3132;42.622;23.328;2022-12-20T12:43:58;94077.56;;;2.56;55.08
6198;BME280;3132;42.622;23.328;2022-12-20T12:46:33;94073.78;;;2.52;55.56
6198;BME280;3132;42.622;23.328;2022-12-20T12:49:16;94073.81;;;2.59;56.70
6198;BME280;3132;42.622;23.328;2022-12-20T12:51:52;94072.72;;;2.34;56.63
6198;BME280;3132;42.622;23.328;2022-12-20T12:54:39;94074.72;;;2.38;56.00
6198;BME280;3132;42.622;23.328;2022-12-20T12:57:14;94067.47;;;2.08;57.76
6198;BME280;3132;42.622;23.328;2022-12-20T12:59:49;94072.56;;;2.42;65.59
6198;BME280;3132;42.622;23.328;2022-12-20T13:20:33;94043.50;;;2.01;61.37
6198;BME280;3132;42.622;23.328;2022-12-20T13:33:46;94055.66;;;1.86;64.21
6198;BME280;3132;42.622;23.328;2022-12-20T13:43:43;94038.47;;;1.52;65.48
6198;BME280;3132;42.622;23.328;2022-12-20T13:51:03;94030.38;;;1.27;67.52
6198;BME280;3132;42.622;23.328;2022-12-20T13:53:29;94038.31;;;1.32;68.28
6198;BME280;3132;42.622;23.328;2022-12-20T13:55:55;94039.25;;;1.25;68.62
6198;BME280;3132;42.622;23.328;2022-12-20T13:58:31;94038.44;;;1.18;68.63
6198;BME280;3132;42.622;23.328;2022-12-20T14:01:08;94042.31;;;1.07;69.42
6198;BME280;3132;42.622;23.328;2022-12-20T14:03:40;94044.00;;;1.00;70.22
6198;BME280;3132;42.622;23.328;2022-12-20T14:06:11;94017.34;;;0.80;71.34
6198;BME280;3132;42.622;23.328;2022-12-20T14:08:40;94032.66;;;0.67;73.07
6198;BME280;3132;42.622;23.328;2022-12-20T14:11:15;94024.75;;;0.69;72.71
6198;BME280;3132;42.622;23.328;2022-12-20T14:13:51;94022.31;;;0.82;70.05
6198;BME280;3132;42.622;23.328;2022-12-20T14:16:18;94022.50;;;0.80;69.51
6198;BME280;3132;42.622;23.328;2022-12-20T14:19:13;94001.38;;;0.85;69.11
6198;BME280;3132;42.622;23.328;2022-12-20T14:21:41;93999.31;;;0.74;69.48
6198;BME280;3132;42.622;23.328;2022-12-20T14:24:15;94011.59;;;0.78;69.82
6198;BME280;3132;42.622;23.328;2022-12-20T14:26:44;94014.78;;;0.80;69.72
6198;BME280;3132;42.622;23.328;2022-12-20T14:29:15;93991.19;;;0.49;70.80
6198;BME280;3132;42.622;23.328;2022-12-20T14:31:43;94000.53;;;0.36;71.52
6198;BME280;3132;42.622;23.328;2022-12-20T14:36:45;94014.16;;;0.36;71.49
6198;BME280;3132;42.622;23.328;2022-12-20T14:39:33;93997.84;;;0.23;72.29
6198;BME280;3132;42.622;23.328;2022-12-20T14:44:27;93992.31;;;0.05;73.32
6198;BME280;3132;42.622;23.328;2022-12-20T14:47:25;93993.69;;;0.22;72.32
6198;BME280;3132;42.622;23.328;2022-12-20T14:49:58;93987.22;;;-0.10;73.49
6198;BME280;3132;42.622;23.328;2022-12-20T14:52:43;93995.53;;;-0.08;74.47
6198;BME280;3132;42.622;23.328;2022-12-20T14:55:38;93985.38;;;-0.16;74.04
6198;BME280;3132;42.622;23.328;2022-12-20T14:58:40;93986.59;;;-0.12;75.29
6198;BME280;3132;42.622;23.328;2022-12-20T15:01:23;93984.91;;;-0.05;74.13
6198;BME280;3132;42.622;23.328;2022-12-20T15:03:58;93976.38;;;0.09;72.14
6198;BME280;3132;42.622;23.328;2022-12-20T15:06:43;93977.56;;;-0.08;74.07
6198;BME280;3132;42.622;23.328;2022-12-20T15:09:08;93980.31;;;-0.10;76.31
6198;BME280;3132;42.622;23.328;2022-12-20T15:11:35;93971.91;;;-0.18;76.45
6198;BME280;3132;42.622;23.328;2022-12-20T15:14:02;93971.66;;;-0.23;75.83
6198;BME280;3132;42.622;23.328;2022-12-20T15:16:46;93963.47;;;-0.33;75.66
6198;BME280;3132;42.622;23.328;2022-12-20T15:19:12;93972.47;;;-0.37;76.24
6198;BME280;3132;42.622;23.328;2022-12-20T15:21:40;93973.22;;;-0.08;82.49